createdAt,value
2018-11-26T00:00:32.215Z,29.13
2018-11-26T00:03:00.216Z,30.00
2018-11-26T00:05:28.252Z,30.33
2018-11-26T00:08:12.935Z,30.43
2018-11-26T00:10:52.011Z,28.20
2018-11-26T00:13:19.921Z,26.60
2018-11-26T00:15:47.847Z,28.50
2018-11-26T00:18:15.746Z,26.67
2018-11-26T00:20:43.704Z,27.43
2018-11-26T00:23:11.581Z,28.13
2018-11-26T00:25:39.482Z,24.50
2018-11-26T00:28:07.520Z,24.50
2018-11-26T00:30:35.431Z,27.90
2018-11-26T00:33:03.348Z,26.57
2018-11-26T00:35:31.291Z,28.20
2018-11-26T00:37:59.194Z,27.23
2018-11-26T00:40:27.122Z,27.23
2018-11-26T00:42:55.063Z,27.47
2018-11-26T00:45:23.035Z,27.30
2018-11-26T00:47:50.929Z,27.30
2018-11-26T00:50:18.864Z,26.20
2018-11-26T00:52:46.907Z,26.60
2018-11-26T00:55:14.802Z,26.90
2018-11-26T00:57:42.752Z,28.47
2018-11-26T01:00:12.007Z,25.03
2018-11-26T01:02:39.929Z,27.37
2018-11-26T01:05:11.171Z,27.60
2018-11-26T01:07:39.100Z,26.50
2018-11-26T01:10:07.027Z,28.07
2018-11-26T01:12:34.964Z,29.87
2018-11-26T01:15:03.085Z,28.30
2018-11-26T01:17:30.988Z,27.53
2018-11-26T01:19:58.920Z,31.07
2018-11-26T01:22:26.866Z,27.90
2018-11-26T01:24:54.768Z,28.90
2018-11-26T01:27:22.697Z,28.33
2018-11-26T01:29:50.606Z,29.30
2018-11-26T01:32:18.586Z,31.67
2018-11-26T01:34:46.515Z,29.50
2018-11-26T01:37:14.440Z,28.73
2018-11-26T01:39:43.151Z,28.73
2018-11-26T01:42:11.108Z,29.23
2018-11-26T01:44:39.018Z,29.07
2018-11-26T01:47:06.932Z,27.60
2018-11-26T01:49:34.895Z,31.00
2018-11-26T01:52:02.803Z,30.83
2018-11-26T01:54:30.742Z,29.23
2018-11-26T01:56:58.699Z,32.63
2018-11-26T01:59:26.639Z,33.50
2018-11-26T02:01:54.546Z,31.10
2018-11-26T02:04:22.542Z,32.60
2018-11-26T02:06:50.434Z,31.13
2018-11-26T02:09:18.335Z,32.43
2018-11-26T02:11:46.307Z,29.70
2018-11-26T02:14:14.208Z,32.67
2018-11-26T02:16:42.143Z,33.03
2018-11-26T02:19:10.120Z,32.73
2018-11-26T02:21:38.097Z,30.83
2018-11-26T02:24:06.048Z,31.50
2018-11-26T02:26:33.965Z,33.60
2018-11-26T02:29:01.872Z,34.90
2018-11-26T02:31:29.885Z,29.53
2018-11-26T02:33:57.824Z,31.80
2018-11-26T02:36:25.787Z,32.60
2018-11-26T02:38:53.704Z,34.13
2018-11-26T02:41:21.632Z,31.17
2018-11-26T02:43:49.534Z,30.77
2018-11-26T02:46:17.471Z,35.40
2018-11-26T02:48:45.477Z,33.13
2018-11-26T02:51:13.391Z,35.30
2018-11-26T02:53:41.298Z,32.27
2018-11-26T02:56:09.308Z,35.57
2018-11-26T02:58:37.208Z,35.83
2018-11-26T03:01:06.399Z,34.40
2018-11-26T03:03:34.364Z,31.37
2018-11-26T03:06:02.280Z,35.20
2018-11-26T03:08:30.251Z,35.07
2018-11-26T03:10:58.161Z,36.90
2018-11-26T03:13:26.054Z,35.60
2018-11-26T03:15:53.958Z,36.50
2018-11-26T03:18:21.878Z,33.43
2018-11-26T03:20:49.808Z,36.20
2018-11-26T03:23:17.800Z,35.33
2018-11-26T03:25:45.728Z,33.83
2018-11-26T03:28:13.631Z,38.43
2018-11-26T03:30:41.534Z,35.93
2018-11-26T03:33:09.467Z,34.60
2018-11-26T03:35:37.394Z,38.83
2018-11-26T03:38:05.572Z,33.70
2018-11-26T03:40:33.592Z,36.40
2018-11-26T03:43:01.485Z,40.33
2018-11-26T03:45:29.829Z,35.30
2018-11-26T03:47:57.812Z,38.10
2018-11-26T03:50:25.728Z,35.60
2018-11-26T03:52:53.649Z,38.97
2018-11-26T03:55:21.963Z,37.23
2018-11-26T03:57:49.967Z,36.53
2018-11-26T04:00:17.882Z,36.50
2018-11-26T04:02:45.829Z,34.33
2018-11-26T04:05:13.768Z,35.23
2018-11-26T04:07:41.767Z,35.47
2018-11-26T04:10:11.292Z,36.53
2018-11-26T04:12:39.333Z,36.03
2018-11-26T04:15:10.089Z,39.03
2018-11-26T04:17:38.046Z,37.17
2018-11-26T04:20:07.059Z,34.87
2018-11-26T04:22:34.973Z,35.93
2018-11-26T04:25:02.955Z,37.80
2018-11-26T04:27:30.876Z,36.17
2018-11-26T04:29:58.779Z,38.30
2018-11-26T04:32:26.710Z,38.10
2018-11-26T04:34:54.596Z,36.17
2018-11-26T04:37:22.466Z,38.87
2018-11-26T04:39:50.392Z,38.63
2018-11-26T04:42:18.290Z,37.77
2018-11-26T04:44:46.252Z,36.90
2018-11-26T04:47:14.200Z,37.23
2018-11-26T04:49:42.099Z,37.37
2018-11-26T04:52:09.986Z,42.33
2018-11-26T04:54:37.959Z,41.23
2018-11-26T04:57:05.880Z,39.27
2018-11-26T04:59:33.889Z,39.23
2018-11-26T05:02:01.805Z,43.73
2018-11-26T05:04:29.716Z,45.27
2018-11-26T05:06:57.612Z,51.17
2018-11-26T05:09:25.547Z,52.67
2018-11-26T05:11:53.481Z,55.80
2018-11-26T05:14:21.366Z,50.40
2018-11-26T05:16:49.356Z,49.43
2018-11-26T05:19:17.240Z,54.43
2018-11-26T05:21:45.126Z,52.30
2018-11-26T05:24:13.061Z,53.93
2018-11-26T05:26:40.953Z,55.17
2018-11-26T05:29:08.835Z,52.20
2018-11-26T05:31:36.761Z,51.60
2018-11-26T05:34:04.985Z,54.83
2018-11-26T05:36:32.980Z,62.53
2018-11-26T05:39:00.902Z,62.80
2018-11-26T05:41:28.807Z,57.97
2018-11-26T05:43:56.703Z,61.40
2018-11-26T05:46:24.631Z,59.83
2018-11-26T05:48:52.603Z,64.27
2018-11-26T05:51:20.525Z,62.83
2018-11-26T05:53:48.463Z,59.63
2018-11-26T05:56:16.397Z,66.10
2018-11-26T05:58:44.285Z,66.83
2018-11-26T06:01:12.347Z,66.90
2018-11-26T06:03:40.303Z,60.83
2018-11-26T06:06:08.199Z,65.73
2018-11-26T06:08:36.136Z,64.50
2018-11-26T06:11:04.177Z,69.07
2018-11-26T06:13:32.079Z,69.13
2018-11-26T06:16:04.931Z,62.63
2018-11-26T06:18:32.820Z,66.40
2018-11-26T06:21:00.772Z,70.60
2018-11-26T06:23:29.455Z,65.87
2018-11-26T06:25:57.343Z,63.23
2018-11-26T06:28:25.237Z,72.50
2018-11-26T06:30:54.172Z,70.00
2018-11-26T06:33:27.892Z,63.90
2018-11-26T06:35:55.904Z,67.83
2018-11-26T06:38:23.799Z,71.97
2018-11-26T06:40:51.725Z,70.03
2018-11-26T06:43:19.664Z,66.17
2018-11-26T06:45:47.559Z,72.17
2018-11-26T06:48:15.451Z,70.47
2018-11-26T06:50:43.421Z,67.13
2018-11-26T06:53:11.455Z,60.13
2018-11-26T06:55:39.418Z,59.83
2018-11-26T06:58:07.384Z,68.03
2018-11-26T07:00:35.336Z,64.67
2018-11-26T07:03:04.224Z,63.20
2018-11-26T07:05:32.218Z,58.30
2018-11-26T07:08:00.108Z,61.20
2018-11-26T07:10:28.008Z,58.37
2018-11-26T07:12:55.964Z,57.50
2018-11-26T07:15:23.896Z,52.23
2018-11-26T07:17:51.836Z,57.53
2018-11-26T07:20:20.772Z,56.30
2018-11-26T07:22:48.760Z,55.60
2018-11-26T07:25:18.340Z,56.47
2018-11-26T07:27:48.068Z,60.47
2018-11-26T07:30:17.355Z,59.27
2018-11-26T07:32:45.264Z,61.53
2018-11-26T07:35:13.936Z,59.07
2018-11-26T07:37:42.105Z,66.67
2018-11-26T07:40:12.429Z,72.33
2018-11-26T07:42:42.139Z,76.13
2018-11-26T07:45:12.740Z,71.33
2018-11-26T07:47:40.676Z,65.37
2018-11-26T07:50:13.213Z,70.30
2018-11-26T07:52:41.471Z,61.97
2018-11-26T07:55:12.119Z,62.00
2018-11-26T07:57:40.158Z,65.13
2018-11-26T08:00:13.709Z,66.63
2018-11-26T08:02:42.321Z,61.27
2018-11-26T08:05:11.669Z,79.17
2018-11-26T08:07:39.624Z,70.20
2018-11-26T08:10:12.731Z,75.97
2018-11-26T08:12:40.804Z,67.57
2018-11-26T08:15:13.807Z,74.83
2018-11-26T08:17:42.215Z,71.00
2018-11-26T08:20:10.659Z,72.40
2018-11-26T08:22:38.659Z,72.37
2018-11-26T08:25:09.266Z,80.87
2018-11-26T08:27:37.259Z,73.83
2018-11-26T08:30:24.077Z,85.33
2018-11-26T08:32:54.407Z,81.53
2018-11-26T08:35:22.339Z,103.60
2018-11-26T08:37:55.826Z,87.43
2018-11-26T08:40:26.075Z,75.40
2018-11-26T08:42:57.800Z,78.57
2018-11-26T08:45:29.267Z,74.77
2018-11-26T08:48:00.261Z,65.17
2018-11-26T08:50:28.169Z,74.00
2018-11-26T08:52:56.073Z,69.07
2018-11-26T08:55:23.991Z,77.50
2018-11-26T08:57:51.918Z,77.47
2018-11-26T09:00:19.863Z,81.47
2018-11-26T09:02:48.689Z,74.07
2018-11-26T09:05:27.020Z,74.37
2018-11-26T09:07:55.032Z,72.93
2018-11-26T09:10:22.936Z,77.17
2018-11-26T09:12:50.843Z,84.60
2018-11-26T09:15:18.747Z,73.77
2018-11-26T09:17:46.645Z,90.77
2018-11-26T09:20:14.572Z,91.27
2018-11-26T09:22:42.517Z,76.73
2018-11-26T09:25:11.578Z,76.47
2018-11-26T09:27:39.594Z,75.47
2018-11-26T09:30:11.772Z,67.63
2018-11-26T09:32:40.396Z,65.60
2018-11-26T09:35:10.135Z,64.33
2018-11-26T09:37:38.120Z,63.07
2018-11-26T09:40:07.958Z,64.77
2018-11-26T09:42:35.904Z,58.40
2018-11-26T09:45:05.044Z,61.27
2018-11-26T09:47:32.994Z,62.40
2018-11-26T09:50:00.954Z,64.97
2018-11-26T09:52:28.892Z,65.83
2018-11-26T09:54:56.792Z,60.03
2018-11-26T09:57:24.675Z,59.33
2018-11-26T09:59:52.663Z,61.63
2018-11-26T10:02:20.608Z,63.73
2018-11-26T10:04:48.632Z,54.07
2018-11-26T10:07:16.633Z,54.73
2018-11-26T10:09:44.527Z,58.07
2018-11-26T10:12:12.423Z,52.87
2018-11-26T10:14:40.350Z,55.83
2018-11-26T10:17:08.236Z,55.60
2018-11-26T10:19:36.187Z,52.97
2018-11-26T10:22:04.266Z,54.07
2018-11-26T10:24:32.157Z,54.40
2018-11-26T10:27:00.093Z,50.73
2018-11-26T10:29:28.023Z,48.33
2018-11-26T10:31:56.173Z,54.87
2018-11-26T10:34:24.130Z,51.60
2018-11-26T10:36:52.145Z,54.87
2018-11-26T10:39:20.046Z,52.23
2018-11-26T10:41:47.932Z,53.33
2018-11-26T10:44:15.872Z,50.50
2018-11-26T10:46:43.814Z,49.60
2018-11-26T10:49:11.740Z,49.17
2018-11-26T10:51:39.703Z,48.83
2018-11-26T10:54:07.613Z,51.97
2018-11-26T10:56:35.516Z,46.03
2018-11-26T10:59:03.499Z,46.70
2018-11-26T11:01:38.722Z,46.63
2018-11-26T11:04:07.104Z,46.73
2018-11-26T11:06:35.022Z,44.67
2018-11-26T11:09:03.405Z,47.73
2018-11-26T11:11:31.372Z,46.03
2018-11-26T11:13:59.309Z,48.60
2018-11-26T11:16:27.202Z,50.73
2018-11-26T11:18:55.217Z,50.53
2018-11-26T11:21:23.131Z,50.17
2018-11-26T11:23:51.015Z,46.77
2018-11-26T11:26:18.951Z,49.53
2018-11-26T11:28:46.874Z,50.77
2018-11-26T11:31:14.785Z,51.50
2018-11-26T11:33:42.737Z,50.63
2018-11-26T11:36:10.653Z,51.80
2018-11-26T11:38:38.563Z,48.07
2018-11-26T11:41:06.597Z,49.73
2018-11-26T11:43:34.508Z,48.17
2018-11-26T11:46:02.398Z,46.27
2018-11-26T11:48:30.340Z,48.30
2018-11-26T11:50:58.248Z,46.67
2018-11-26T11:53:26.161Z,44.77
2018-11-26T11:55:54.177Z,49.37
2018-11-26T11:58:22.103Z,42.33
2018-11-26T12:00:50.418Z,36.20
2018-11-26T12:03:19.515Z,39.73
2018-11-26T12:05:47.473Z,36.53
2018-11-26T12:08:15.507Z,40.93
2018-11-26T12:10:47.205Z,39.67
2018-11-26T12:13:15.695Z,36.93
2018-11-26T12:15:47.241Z,35.00
2018-11-26T12:18:15.165Z,39.70
2018-11-26T12:20:43.081Z,39.37
2018-11-26T12:23:11.141Z,35.87
2018-11-26T12:25:39.044Z,36.70
2018-11-26T12:28:06.987Z,36.43
2018-11-26T12:30:36.998Z,36.53
2018-11-26T12:33:05.281Z,35.00
2018-11-26T12:35:33.205Z,38.67
2018-11-26T12:38:01.164Z,31.00
2018-11-26T12:40:29.084Z,34.70
2018-11-26T12:42:58.348Z,35.90
2018-11-26T12:45:34.029Z,39.13
2018-11-26T12:48:02.341Z,35.83
2018-11-26T12:50:30.253Z,35.67
2018-11-26T12:52:58.450Z,45.20
2018-11-26T12:55:26.318Z,39.97
2018-11-26T12:57:55.305Z,35.13
2018-11-26T13:00:28.160Z,35.37
2018-11-26T13:03:14.496Z,34.70
2018-11-26T13:05:42.448Z,40.73
2018-11-26T13:08:10.384Z,39.07
2018-11-26T13:10:38.783Z,41.87
2018-11-26T13:13:08.208Z,39.53
2018-11-26T13:15:36.909Z,42.07
2018-11-26T13:18:05.212Z,39.97
2018-11-26T13:20:33.322Z,41.83
2018-11-26T13:23:01.269Z,36.13
2018-11-26T13:25:32.017Z,40.97
2018-11-26T13:28:02.173Z,40.37
2018-11-26T13:30:34.629Z,38.10
2018-11-26T13:33:04.031Z,41.47
2018-11-26T13:35:31.954Z,43.93
2018-11-26T13:37:59.913Z,41.90
2018-11-26T13:40:28.469Z,39.40
2018-11-26T13:42:56.408Z,39.27
2018-11-26T13:45:28.165Z,38.37
2018-11-26T13:47:57.059Z,37.90
2018-11-26T13:50:30.756Z,38.03
2018-11-26T13:52:58.904Z,38.80
2018-11-26T13:55:26.728Z,40.83
2018-11-26T13:57:54.653Z,38.93
2018-11-26T14:00:23.578Z,36.57
2018-11-26T14:02:51.608Z,40.60
2018-11-26T14:05:19.652Z,39.00
2018-11-26T14:07:47.832Z,37.43
2018-11-26T14:10:18.075Z,40.00
2018-11-26T14:12:47.866Z,59.27
2018-11-26T14:15:15.864Z,37.37
2018-11-26T14:17:43.828Z,35.00
2018-11-26T14:20:14.048Z,40.27
2018-11-26T14:22:42.121Z,36.27
2018-11-26T14:25:16.068Z,34.30
2018-11-26T14:27:44.804Z,35.20
2018-11-26T14:30:16.664Z,36.03
2018-11-26T14:32:44.581Z,35.10
2018-11-26T14:35:12.559Z,34.90
2018-11-26T14:37:41.458Z,30.43
2018-11-26T14:40:14.224Z,31.97
2018-11-26T14:42:42.868Z,30.70
2018-11-26T14:45:12.910Z,30.70
2018-11-26T14:47:41.184Z,29.77
2018-11-26T14:50:12.366Z,26.30
2018-11-26T14:52:42.112Z,27.63
2018-11-26T14:55:18.509Z,28.67
2018-11-26T14:57:47.436Z,24.87
2018-11-26T15:00:17.378Z,24.30
2018-11-26T15:02:45.612Z,26.97
2018-11-26T15:05:13.802Z,24.57
2018-11-26T15:07:42.368Z,24.70
2018-11-26T15:10:26.753Z,23.50
2018-11-26T15:12:56.444Z,20.43
2018-11-26T15:15:26.480Z,22.67
2018-11-26T15:17:57.334Z,21.67
2018-11-26T15:20:27.838Z,26.00
2018-11-26T15:23:00.567Z,16.07
2018-11-26T15:25:33.405Z,14.57
2018-11-26T15:28:15.925Z,18.63
2018-11-26T15:30:43.932Z,14.27
2018-11-26T15:33:11.979Z,15.03
2018-11-26T15:35:39.903Z,16.17
2018-11-26T15:38:08.732Z,16.87
2018-11-26T15:40:38.582Z,18.13
2018-11-26T15:43:08.048Z,18.60
2018-11-26T15:45:37.313Z,17.37
2018-11-26T15:48:09.964Z,17.77
2018-11-26T15:50:37.994Z,28.33
2018-11-26T15:53:07.830Z,22.90
2018-11-26T15:55:36.595Z,21.30
2018-11-26T15:58:06.180Z,20.17
2018-11-26T16:00:34.146Z,20.90
2018-11-26T16:03:02.115Z,19.30
2018-11-26T16:05:34.023Z,20.27
2018-11-26T16:08:12.175Z,21.93
2018-11-26T16:10:44.805Z,22.03
2018-11-26T16:13:16.960Z,22.73
2018-11-26T16:15:46.105Z,19.50
2018-11-26T16:18:22.950Z,21.33
2018-11-26T16:20:53.240Z,20.57
2018-11-26T16:23:49.613Z,23.37
2018-11-26T16:26:22.317Z,23.73
2018-11-26T16:28:55.276Z,20.23
2018-11-26T16:31:25.039Z,20.97
2018-11-26T16:33:53.201Z,20.83
2018-11-26T16:36:22.018Z,21.80
2018-11-26T16:38:51.138Z,19.93
2018-11-26T16:41:23.334Z,22.20
2018-11-26T16:43:53.155Z,23.47
2018-11-26T16:46:23.233Z,24.47
2018-11-26T16:48:55.973Z,27.47
2018-11-26T16:51:27.905Z,26.77
2018-11-26T16:53:56.828Z,24.17
2018-11-26T16:56:26.869Z,22.53
2018-11-26T16:58:56.078Z,23.53
2018-11-26T17:01:26.749Z,23.50
2018-11-26T17:03:57.137Z,25.27
2018-11-26T17:06:25.581Z,25.70
2018-11-26T17:08:55.502Z,26.17
2018-11-26T17:11:25.724Z,30.60
2018-11-26T17:13:55.025Z,28.77
2018-11-26T17:16:23.483Z,26.47
2018-11-26T17:18:56.403Z,32.00
2018-11-26T17:21:39.002Z,31.37
2018-11-26T17:24:09.184Z,34.17
2018-11-26T17:26:38.169Z,35.80
2018-11-26T17:29:07.714Z,37.60
2018-11-26T17:31:51.002Z,36.70
2018-11-26T17:34:23.045Z,34.03
2018-11-26T17:36:53.095Z,35.00
2018-11-26T17:39:22.420Z,38.07
2018-11-26T17:41:50.983Z,36.57
2018-11-26T17:44:19.544Z,37.00
2018-11-26T17:46:48.127Z,40.47
2018-11-26T17:49:18.649Z,38.00
2018-11-26T17:51:47.643Z,37.33
2018-11-26T17:54:17.251Z,37.97
2018-11-26T17:56:48.308Z,42.17
2018-11-26T17:59:18.817Z,37.03
2018-11-26T18:01:47.933Z,34.50
2018-11-26T18:04:17.340Z,40.40
2018-11-26T18:06:47.572Z,35.00
2018-11-26T18:09:22.806Z,38.13
2018-11-26T18:11:49.063Z,39.40
2018-11-26T18:14:20.109Z,36.53
2018-11-26T18:16:49.713Z,38.70
2018-11-26T18:19:19.368Z,36.27
2018-11-26T18:21:49.505Z,37.13
2018-11-26T18:24:21.313Z,33.83
2018-11-26T18:26:53.582Z,33.87
2018-11-26T18:29:25.454Z,36.63
2018-11-26T18:31:55.714Z,32.83
2018-11-26T18:34:24.659Z,38.73
2018-11-26T18:36:58.368Z,35.07
2018-11-26T18:39:30.597Z,36.93
2018-11-26T18:42:03.411Z,38.33
2018-11-26T18:44:39.051Z,35.37
2018-11-26T18:47:09.412Z,39.10
2018-11-26T18:49:42.013Z,34.30
2018-11-26T18:52:12.564Z,34.43
2018-11-26T18:54:51.088Z,35.07
2018-11-26T18:57:24.227Z,39.53
2018-11-26T18:59:54.432Z,39.67
2018-11-26T19:02:28.663Z,40.70
2018-11-26T19:05:06.540Z,40.00
2018-11-26T19:07:38.746Z,43.13
2018-11-26T19:10:20.323Z,41.10
2018-11-26T19:13:02.169Z,46.17
2018-11-26T19:15:35.052Z,41.60
2018-11-26T19:18:43.221Z,36.93
2018-11-26T19:21:14.621Z,36.27
2018-11-26T19:23:47.379Z,35.30
2018-11-26T19:26:16.826Z,33.73
2018-11-26T19:28:51.628Z,31.97
2018-11-26T19:31:27.679Z,32.43
2018-11-26T19:33:58.399Z,34.57
2018-11-26T19:36:27.714Z,33.13
2018-11-26T19:38:57.324Z,33.60
2018-11-26T19:41:28.203Z,32.70
2018-11-26T19:43:58.932Z,33.43
2018-11-26T19:46:28.361Z,32.10
2018-11-26T19:48:58.841Z,36.37
2018-11-26T19:51:31.501Z,33.73
2018-11-26T19:54:03.270Z,32.93
2018-11-26T19:56:36.622Z,33.03
2018-11-26T19:59:06.681Z,34.10
2018-11-26T20:01:40.314Z,36.37
2018-11-26T20:04:30.538Z,37.10
2018-11-26T20:07:00.876Z,36.63
2018-11-26T20:09:34.410Z,34.63
2018-11-26T20:12:04.125Z,34.50
2018-11-26T20:14:33.887Z,42.10
2018-11-26T20:17:04.177Z,43.37
2018-11-26T20:19:38.410Z,37.83
2018-11-26T20:22:07.337Z,37.77
2018-11-26T20:24:40.068Z,39.10
2018-11-26T20:27:13.661Z,39.97
2018-11-26T20:29:43.006Z,37.43
2018-11-26T20:32:15.130Z,39.97
2018-11-26T20:34:47.192Z,36.07
2018-11-26T20:37:17.449Z,34.87
2018-11-26T20:39:46.840Z,40.20
2018-11-26T20:42:16.571Z,39.63
2018-11-26T20:44:47.088Z,41.57
2018-11-26T20:47:16.778Z,35.20
2018-11-26T20:49:46.356Z,38.00
2018-11-26T20:52:15.728Z,36.00
2018-11-26T20:54:49.739Z,37.13
2018-11-26T20:57:21.101Z,38.93
2018-11-26T20:59:52.571Z,37.93
2018-11-26T21:02:21.312Z,37.13
2018-11-26T21:04:52.616Z,38.53
2018-11-26T21:07:22.223Z,45.93
2018-11-26T21:09:52.495Z,48.60
2018-11-26T21:12:22.391Z,41.63
2018-11-26T21:14:54.303Z,48.67
2018-11-26T21:17:25.313Z,43.50
2018-11-26T21:20:00.596Z,43.83
2018-11-26T21:22:32.755Z,41.87
2018-11-26T21:25:02.099Z,42.37
2018-11-26T21:27:39.569Z,39.87
2018-11-26T21:30:11.809Z,42.70
2018-11-26T21:32:42.325Z,39.33
2018-11-26T21:35:12.837Z,40.47
2018-11-26T21:37:47.995Z,37.37
2018-11-26T21:40:20.438Z,39.50
2018-11-26T21:42:47.196Z,36.13
2018-11-26T21:45:25.644Z,37.90
2018-11-26T21:47:56.204Z,39.03
2018-11-26T21:50:28.723Z,37.27
2018-11-26T21:53:04.393Z,38.17
2018-11-26T21:55:35.014Z,40.80
2018-11-26T21:58:10.023Z,38.23
2018-11-26T22:00:42.220Z,40.33
2018-11-26T22:03:13.440Z,42.13
2018-11-26T22:05:45.736Z,39.77
2018-11-26T22:08:16.249Z,38.70
2018-11-26T22:10:46.650Z,36.23
2018-11-26T22:13:20.897Z,39.70
2018-11-26T22:15:49.833Z,42.00
2018-11-26T22:18:20.069Z,46.20
2018-11-26T22:20:50.430Z,48.80
2018-11-26T22:23:19.961Z,42.80
2018-11-26T22:25:49.576Z,44.57
2018-11-26T22:28:19.099Z,42.70
2018-11-26T22:30:47.924Z,44.80
2018-11-26T22:33:17.555Z,40.20
2018-11-26T22:35:48.247Z,41.70
2018-11-26T22:38:16.796Z,40.07
2018-11-26T22:40:44.784Z,41.37
2018-11-26T22:43:13.241Z,45.57
2018-11-26T22:45:41.165Z,43.53
2018-11-26T22:48:11.843Z,46.83
2018-11-26T22:50:43.514Z,44.80
2018-11-26T22:53:11.550Z,42.37
2018-11-26T22:55:39.574Z,38.57
2018-11-26T22:58:14.237Z,40.80
2018-11-26T23:00:50.914Z,42.33
2018-11-26T23:03:21.132Z,46.10
2018-11-26T23:05:55.154Z,46.53
2018-11-26T23:08:23.770Z,43.67
2018-11-26T23:10:54.233Z,43.03
2018-11-26T23:13:22.709Z,44.53
2018-11-26T23:15:52.762Z,46.67
2018-11-26T23:18:20.810Z,48.30
2018-11-26T23:20:49.454Z,47.57
2018-11-26T23:23:18.154Z,47.80
2018-11-26T23:25:46.156Z,55.00
2018-11-26T23:28:14.137Z,53.93
2018-11-26T23:30:42.078Z,50.93
2018-11-26T23:33:10.086Z,46.27
2018-11-26T23:35:38.049Z,48.10
2018-11-26T23:38:06.090Z,47.33
2018-11-26T23:40:34.789Z,41.63
2018-11-26T23:43:02.712Z,43.37
2018-11-26T23:45:30.712Z,46.10
2018-11-26T23:47:58.655Z,42.40
2018-11-26T23:50:26.619Z,46.47
2018-11-26T23:52:54.596Z,39.40
2018-11-26T23:55:23.490Z,44.17
2018-11-26T23:57:51.477Z,41.63
